sensor_id;sensor_type;location;lat;lon;timestamp;P1;durP1;ratioP1;P2;durP2;ratioP2
61702;SDS011;47622;47.726;3.298;2022-08-02T00:01:51;1.60;;;1.30;;
61702;SDS011;47622;47.726;3.298;2022-08-02T00:04:17;3.28;;;1.50;;
61702;SDS011;47622;47.726;3.298;2022-08-02T00:06:43;2.95;;;1.60;;
61702;SDS011;47622;47.726;3.298;2022-08-02T00:09:08;3.25;;;1.70;;
61702;SDS011;47622;47.726;3.298;2022-08-02T00:11:35;2.70;;;1.80;;
61702;SDS011;47622;47.726;3.298;2022-08-02T00:14:02;3.28;;;1.60;;
61702;SDS011;47622;47.726;3.298;2022-08-02T00:16:28;4.85;;;1.63;;
61702;SDS011;47622;47.726;3.298;2022-08-02T00:18:54;3.83;;;1.80;;
61702;SDS011;47622;47.726;3.298;2022-08-02T00:21:19;7.80;;;1.70;;
61702;SDS011;47622;47.726;3.298;2022-08-02T00:23:48;2.67;;;1.90;;
61702;SDS011;47622;47.726;3.298;2022-08-02T00:26:13;1.83;;;1.73;;
61702;SDS011;47622;47.726;3.298;2022-08-02T00:28:39;2.42;;;1.70;;
61702;SDS011;47622;47.726;3.298;2022-08-02T00:31:07;1.73;;;1.63;;
61702;SDS011;47622;47.726;3.298;2022-08-02T00:33:33;2.47;;;1.70;;
61702;SDS011;47622;47.726;3.298;2022-08-02T00:36:00;1.83;;;1.70;;
61702;SDS011;47622;47.726;3.298;2022-08-02T00:38:25;2.40;;;1.50;;
61702;SDS011;47622;47.726;3.298;2022-08-02T00:40:51;2.67;;;1.77;;
61702;SDS011;47622;47.726;3.298;2022-08-02T00:43:18;2.25;;;1.42;;
61702;SDS011;47622;47.726;3.298;2022-08-02T00:45:44;1.83;;;1.63;;
61702;SDS011;47622;47.726;3.298;2022-08-02T00:48:11;1.67;;;1.48;;
61702;SDS011;47622;47.726;3.298;2022-08-02T00:50:38;2.92;;;1.60;;
61702;SDS011;47622;47.726;3.298;2022-08-02T00:53:08;1.77;;;1.60;;
61702;SDS011;47622;47.726;3.298;2022-08-02T00:55:34;2.85;;;1.58;;
61702;SDS011;47622;47.726;3.298;2022-08-02T00:58:01;1.92;;;1.70;;
61702;SDS011;47622;47.726;3.298;2022-08-02T01:00:28;2.25;;;1.73;;
61702;SDS011;47622;47.726;3.298;2022-08-02T01:02:53;1.60;;;1.50;;
61702;SDS011;47622;47.726;3.298;2022-08-02T01:05:19;2.53;;;1.70;;
61702;SDS011;47622;47.726;3.298;2022-08-02T01:07:45;1.95;;;1.50;;
61702;SDS011;47622;47.726;3.298;2022-08-02T01:10:11;2.17;;;1.70;;
61702;SDS011;47622;47.726;3.298;2022-08-02T01:12:37;1.65;;;1.55;;
61702;SDS011;47622;47.726;3.298;2022-08-02T01:15:05;1.63;;;1.52;;
61702;SDS011;47622;47.726;3.298;2022-08-02T01:17:41;2.60;;;1.67;;
61702;SDS011;47622;47.726;3.298;2022-08-02T01:26:38;1.98;;;1.70;;
61702;SDS011;47622;47.726;3.298;2022-08-02T01:29:16;3.38;;;1.55;;
61702;SDS011;47622;47.726;3.298;2022-08-02T01:39:42;4.13;;;1.73;;
61702;SDS011;47622;47.726;3.298;2022-08-02T01:42:10;2.55;;;1.83;;
61702;SDS011;47622;47.726;3.298;2022-08-02T01:44:40;1.70;;;1.60;;
61702;SDS011;47622;47.726;3.298;2022-08-02T01:47:13;3.85;;;2.10;;
61702;SDS011;47622;47.726;3.298;2022-08-02T01:49:44;2.55;;;1.70;;
61702;SDS011;47622;47.726;3.298;2022-08-02T01:52:15;1.73;;;1.63;;
61702;SDS011;47622;47.726;3.298;2022-08-02T01:55:06;2.83;;;1.98;;
61702;SDS011;47622;47.726;3.298;2022-08-02T01:57:44;1.60;;;1.50;;
61702;SDS011;47622;47.726;3.298;2022-08-02T02:00:17;3.63;;;1.80;;
61702;SDS011;47622;47.726;3.298;2022-08-02T02:02:48;2.17;;;1.80;;
61702;SDS011;47622;47.726;3.298;2022-08-02T02:05:17;6.28;;;1.70;;
61702;SDS011;47622;47.726;3.298;2022-08-02T02:07:44;5.82;;;1.90;;
61702;SDS011;47622;47.726;3.298;2022-08-02T02:10:15;2.17;;;1.88;;
61702;SDS011;47622;47.726;3.298;2022-08-02T02:12:43;4.05;;;1.77;;
61702;SDS011;47622;47.726;3.298;2022-08-02T02:15:12;2.13;;;1.90;;
61702;SDS011;47622;47.726;3.298;2022-08-02T02:17:45;4.78;;;1.88;;
61702;SDS011;47622;47.726;3.298;2022-08-02T02:20:19;2.90;;;1.75;;
61702;SDS011;47622;47.726;3.298;2022-08-02T02:22:48;2.10;;;1.48;;
61702;SDS011;47622;47.726;3.298;2022-08-02T02:25:15;1.50;;;1.40;;
61702;SDS011;47622;47.726;3.298;2022-08-02T02:27:57;2.30;;;1.40;;
61702;SDS011;47622;47.726;3.298;2022-08-02T02:30:45;1.60;;;1.50;;
61702;SDS011;47622;47.726;3.298;2022-08-02T02:33:15;5.80;;;1.60;;
61702;SDS011;47622;47.726;3.298;2022-08-02T02:35:48;1.50;;;1.40;;
61702;SDS011;47622;47.726;3.298;2022-08-02T02:40:47;1.60;;;1.50;;
61702;SDS011;47622;47.726;3.298;2022-08-02T02:43:17;2.25;;;1.75;;
61702;SDS011;47622;47.726;3.298;2022-08-02T02:45:45;1.58;;;1.48;;
61702;SDS011;47622;47.726;3.298;2022-08-02T02:48:14;1.95;;;1.75;;
61702;SDS011;47622;47.726;3.298;2022-08-02T02:50:41;3.75;;;2.03;;
61702;SDS011;47622;47.726;3.298;2022-08-02T02:53:08;4.10;;;1.70;;
61702;SDS011;47622;47.726;3.298;2022-08-02T02:55:42;2.67;;;1.60;;
61702;SDS011;47622;47.726;3.298;2022-08-02T03:00:44;4.55;;;1.70;;
61702;SDS011;47622;47.726;3.298;2022-08-02T03:03:32;1.92;;;1.80;;
61702;SDS011;47622;47.726;3.298;2022-08-02T03:06:11;4.45;;;1.77;;
61702;SDS011;47622;47.726;3.298;2022-08-02T03:08:37;4.63;;;1.70;;
61702;SDS011;47622;47.726;3.298;2022-08-02T03:11:07;3.90;;;1.90;;
61702;SDS011;47622;47.726;3.298;2022-08-02T03:13:39;3.80;;;2.03;;
61702;SDS011;47622;47.726;3.298;2022-08-02T03:16:05;3.40;;;1.60;;
61702;SDS011;47622;47.726;3.298;2022-08-02T03:18:32;3.60;;;2.13;;
61702;SDS011;47622;47.726;3.298;2022-08-02T03:21:03;2.58;;;1.65;;
61702;SDS011;47622;47.726;3.298;2022-08-02T03:23:35;2.20;;;1.85;;
61702;SDS011;47622;47.726;3.298;2022-08-02T03:26:04;1.83;;;1.50;;
61702;SDS011;47622;47.726;3.298;2022-08-02T03:28:31;3.00;;;1.73;;
61702;SDS011;47622;47.726;3.298;2022-08-02T03:31:00;3.22;;;1.65;;
61702;SDS011;47622;47.726;3.298;2022-08-02T03:33:26;2.78;;;1.75;;
61702;SDS011;47622;47.726;3.298;2022-08-02T03:36:02;2.30;;;1.40;;
61702;SDS011;47622;47.726;3.298;2022-08-02T03:38:40;1.50;;;1.40;;
61702;SDS011;47622;47.726;3.298;2022-08-02T03:41:11;2.03;;;1.50;;
61702;SDS011;47622;47.726;3.298;2022-08-02T03:43:45;4.25;;;2.15;;
61702;SDS011;47622;47.726;3.298;2022-08-02T03:46:17;2.38;;;1.63;;
61702;SDS011;47622;47.726;3.298;2022-08-02T03:48:48;3.78;;;1.70;;
61702;SDS011;47622;47.726;3.298;2022-08-02T03:51:18;3.88;;;2.03;;
61702;SDS011;47622;47.726;3.298;2022-08-02T03:53:53;1.83;;;1.70;;
61702;SDS011;47622;47.726;3.298;2022-08-02T03:56:27;2.40;;;1.45;;
61702;SDS011;47622;47.726;3.298;2022-08-02T03:59:09;2.78;;;1.35;;
61702;SDS011;47622;47.726;3.298;2022-08-02T04:01:40;1.73;;;1.42;;
61702;SDS011;47622;47.726;3.298;2022-08-02T04:04:11;1.67;;;1.50;;
61702;SDS011;47622;47.726;3.298;2022-08-02T04:06:40;2.13;;;1.40;;
61702;SDS011;47622;47.726;3.298;2022-08-02T04:09:09;1.85;;;1.40;;
61702;SDS011;47622;47.726;3.298;2022-08-02T04:11:34;2.85;;;1.60;;
61702;SDS011;47622;47.726;3.298;2022-08-02T04:14:04;1.63;;;1.42;;
61702;SDS011;47622;47.726;3.298;2022-08-02T04:16:36;1.95;;;1.48;;
61702;SDS011;47622;47.726;3.298;2022-08-02T04:19:06;2.75;;;1.55;;
61702;SDS011;47622;47.726;3.298;2022-08-02T04:21:35;1.88;;;1.13;;
61702;SDS011;47622;47.726;3.298;2022-08-02T04:24:13;2.22;;;1.40;;
61702;SDS011;47622;47.726;3.298;2022-08-02T04:26:44;2.35;;;1.38;;
61702;SDS011;47622;47.726;3.298;2022-08-02T04:29:10;3.25;;;1.38;;
61702;SDS011;47622;47.726;3.298;2022-08-02T04:37:00;1.00;;;1.00;;
61702;SDS011;47622;47.726;3.298;2022-08-02T04:39:29;2.38;;;1.50;;
61702;SDS011;47622;47.726;3.298;2022-08-02T04:44:24;1.40;;;1.30;;
61702;SDS011;47622;47.726;3.298;2022-08-02T04:46:56;2.35;;;2.00;;
61702;SDS011;47622;47.726;3.298;2022-08-02T04:49:33;1.42;;;1.33;;
61702;SDS011;47622;47.726;3.298;2022-08-02T04:54:25;2.88;;;1.42;;
61702;SDS011;47622;47.726;3.298;2022-08-02T04:56:54;2.60;;;1.50;;
61702;SDS011;47622;47.726;3.298;2022-08-02T04:59:19;1.50;;;1.40;;
61702;SDS011;47622;47.726;3.298;2022-08-02T05:01:45;1.63;;;1.50;;
61702;SDS011;47622;47.726;3.298;2022-08-02T05:04:11;3.47;;;1.73;;
61702;SDS011;47622;47.726;3.298;2022-08-02T05:06:36;3.42;;;1.60;;
61702;SDS011;47622;47.726;3.298;2022-08-02T05:09:05;2.92;;;1.50;;
61702;SDS011;47622;47.726;3.298;2022-08-02T05:11:31;2.00;;;1.60;;
61702;SDS011;47622;47.726;3.298;2022-08-02T05:13:57;3.90;;;1.40;;
61702;SDS011;47622;47.726;3.298;2022-08-02T05:16:30;1.92;;;1.27;;
61702;SDS011;47622;47.726;3.298;2022-08-02T05:18:59;1.90;;;1.70;;
61702;SDS011;47622;47.726;3.298;2022-08-02T05:21:32;2.17;;;1.30;;
61702;SDS011;47622;47.726;3.298;2022-08-02T05:23:57;2.03;;;1.70;;
61702;SDS011;47622;47.726;3.298;2022-08-02T05:26:23;4.13;;;1.80;;
61702;SDS011;47622;47.726;3.298;2022-08-02T05:28:56;1.50;;;1.40;;
61702;SDS011;47622;47.726;3.298;2022-08-02T05:31:31;3.15;;;1.45;;
61702;SDS011;47622;47.726;3.298;2022-08-02T05:34:02;2.28;;;1.80;;
61702;SDS011;47622;47.726;3.298;2022-08-02T05:36:29;2.38;;;1.60;;
61702;SDS011;47622;47.726;3.298;2022-08-02T05:38:55;2.08;;;1.88;;
61702;SDS011;47622;47.726;3.298;2022-08-02T05:41:23;2.10;;;1.73;;
61702;SDS011;47622;47.726;3.298;2022-08-02T05:43:52;2.65;;;1.55;;
61702;SDS011;47622;47.726;3.298;2022-08-02T05:46:17;2.30;;;1.60;;
61702;SDS011;47622;47.726;3.298;2022-08-02T05:48:43;2.60;;;2.00;;
61702;SDS011;47622;47.726;3.298;2022-08-02T05:51:23;4.63;;;1.90;;
61702;SDS011;47622;47.726;3.298;2022-08-02T05:54:09;2.30;;;1.80;;
61702;SDS011;47622;47.726;3.298;2022-08-02T05:57:04;6.55;;;2.00;;
61702;SDS011;47622;47.726;3.298;2022-08-02T06:00:06;3.60;;;2.00;;
61702;SDS011;47622;47.726;3.298;2022-08-02T06:05:26;2.80;;;1.90;;
61702;SDS011;47622;47.726;3.298;2022-08-02T06:08:29;4.20;;;2.10;;
61702;SDS011;47622;47.726;3.298;2022-08-02T06:10:58;4.45;;;2.20;;
61702;SDS011;47622;47.726;3.298;2022-08-02T06:13:33;3.97;;;2.42;;
61702;SDS011;47622;47.726;3.298;2022-08-02T06:16:05;5.45;;;2.20;;
61702;SDS011;47622;47.726;3.298;2022-08-02T06:18:41;4.47;;;2.40;;
61702;SDS011;47622;47.726;3.298;2022-08-02T06:21:12;3.35;;;2.30;;
61702;SDS011;47622;47.726;3.298;2022-08-02T06:23:40;6.50;;;2.53;;
61702;SDS011;47622;47.726;3.298;2022-08-02T06:26:09;3.35;;;2.33;;
61702;SDS011;47622;47.726;3.298;2022-08-02T06:28:37;2.30;;;2.03;;
61702;SDS011;47622;47.726;3.298;2022-08-02T06:43:41;1.88;;;1.42;;
61702;SDS011;47622;47.726;3.298;2022-08-02T06:46:15;2.22;;;1.80;;
61702;SDS011;47622;47.726;3.298;2022-08-02T06:48:40;1.77;;;1.65;;
61702;SDS011;47622;47.726;3.298;2022-08-02T06:53:32;4.18;;;1.77;;
61702;SDS011;47622;47.726;3.298;2022-08-02T06:55:58;3.58;;;1.90;;
61702;SDS011;47622;47.726;3.298;2022-08-02T06:58:24;1.90;;;1.70;;
61702;SDS011;47622;47.726;3.298;2022-08-02T07:00:50;2.10;;;1.40;;
61702;SDS011;47622;47.726;3.298;2022-08-02T07:03:16;1.88;;;1.67;;
61702;SDS011;47622;47.726;3.298;2022-08-02T07:05:42;4.63;;;1.83;;
61702;SDS011;47622;47.726;3.298;2022-08-02T07:08:13;2.47;;;1.70;;
61702;SDS011;47622;47.726;3.298;2022-08-02T07:10:39;1.70;;;1.55;;
61702;SDS011;47622;47.726;3.298;2022-08-02T07:13:05;3.40;;;1.50;;
61702;SDS011;47622;47.726;3.298;2022-08-02T07:15:31;3.17;;;1.40;;
61702;SDS011;47622;47.726;3.298;2022-08-02T07:17:57;1.67;;;1.30;;
61702;SDS011;47622;47.726;3.298;2022-08-02T07:20:25;1.90;;;1.42;;
61702;SDS011;47622;47.726;3.298;2022-08-02T07:22:51;9.10;;;1.95;;
61702;SDS011;47622;47.726;3.298;2022-08-02T07:25:17;2.17;;;1.65;;
61702;SDS011;47622;47.726;3.298;2022-08-02T07:27:43;2.03;;;1.60;;
61702;SDS011;47622;47.726;3.298;2022-08-02T07:30:09;3.67;;;1.70;;
61702;SDS011;47622;47.726;3.298;2022-08-02T07:37:31;1.50;;;1.17;;
61702;SDS011;47622;47.726;3.298;2022-08-02T07:39:58;2.85;;;1.40;;
61702;SDS011;47622;47.726;3.298;2022-08-02T07:42:24;4.25;;;1.17;;
61702;SDS011;47622;47.726;3.298;2022-08-02T07:44:50;2.72;;;1.30;;
61702;SDS011;47622;47.726;3.298;2022-08-02T07:47:17;4.40;;;1.58;;
61702;SDS011;47622;47.726;3.298;2022-08-02T07:49:46;1.70;;;1.27;;
61702;SDS011;47622;47.726;3.298;2022-08-02T07:52:14;3.90;;;1.40;;
61702;SDS011;47622;47.726;3.298;2022-08-02T07:54:40;3.38;;;1.40;;
61702;SDS011;47622;47.726;3.298;2022-08-02T07:57:05;2.90;;;1.30;;
61702;SDS011;47622;47.726;3.298;2022-08-02T07:59:31;2.75;;;1.30;;
61702;SDS011;47622;47.726;3.298;2022-08-02T08:01:57;1.80;;;1.23;;
61702;SDS011;47622;47.726;3.298;2022-08-02T08:04:23;2.53;;;1.27;;
61702;SDS011;47622;47.726;3.298;2022-08-02T08:06:48;2.88;;;1.25;;
61702;SDS011;47622;47.726;3.298;2022-08-02T08:09:17;2.50;;;1.20;;
61702;SDS011;47622;47.726;3.298;2022-08-02T08:11:44;1.58;;;1.48;;
61702;SDS011;47622;47.726;3.298;2022-08-02T08:14:10;2.78;;;1.20;;
61702;SDS011;47622;47.726;3.298;2022-08-02T08:16:39;1.83;;;1.13;;
61702;SDS011;47622;47.726;3.298;2022-08-02T08:19:05;1.98;;;1.33;;
61702;SDS011;47622;47.726;3.298;2022-08-02T08:21:31;1.65;;;1.05;;
61702;SDS011;47622;47.726;3.298;2022-08-02T08:24:01;2.78;;;1.20;;
61702;SDS011;47622;47.726;3.298;2022-08-02T08:26:28;1.92;;;1.15;;
61702;SDS011;47622;47.726;3.298;2022-08-02T08:28:55;3.08;;;1.40;;
61702;SDS011;47622;47.726;3.298;2022-08-02T08:31:21;3.30;;;1.20;;
61702;SDS011;47622;47.726;3.298;2022-08-02T08:33:48;2.00;;;1.10;;
61702;SDS011;47622;47.726;3.298;2022-08-02T08:36:14;1.20;;;1.02;;
61702;SDS011;47622;47.726;3.298;2022-08-02T08:38:40;2.70;;;1.20;;
61702;SDS011;47622;47.726;3.298;2022-08-02T08:41:06;1.40;;;1.10;;
61702;SDS011;47622;47.726;3.298;2022-08-02T08:43:32;2.83;;;1.25;;
61702;SDS011;47622;47.726;3.298;2022-08-02T08:45:59;3.05;;;1.20;;
61702;SDS011;47622;47.726;3.298;2022-08-02T08:48:26;2.40;;;1.10;;
61702;SDS011;47622;47.726;3.298;2022-08-02T08:51:03;2.47;;;1.00;;
61702;SDS011;47622;47.726;3.298;2022-08-02T08:53:32;1.88;;;1.17;;
61702;SDS011;47622;47.726;3.298;2022-08-02T08:56:04;2.25;;;0.95;;
61702;SDS011;47622;47.726;3.298;2022-08-02T08:58:30;0.90;;;0.90;;
61702;SDS011;47622;47.726;3.298;2022-08-02T09:00:56;3.30;;;1.27;;
61702;SDS011;47622;47.726;3.298;2022-08-02T09:03:22;1.65;;;1.00;;
61702;SDS011;47622;47.726;3.298;2022-08-02T09:05:49;1.58;;;1.10;;
61702;SDS011;47622;47.726;3.298;2022-08-02T09:08:15;1.40;;;1.08;;
61702;SDS011;47622;47.726;3.298;2022-08-02T09:10:46;1.27;;;0.95;;
61702;SDS011;47622;47.726;3.298;2022-08-02T09:13:15;1.10;;;1.00;;
61702;SDS011;47622;47.726;3.298;2022-08-02T09:15:53;2.28;;;1.00;;
61702;SDS011;47622;47.726;3.298;2022-08-02T09:18:36;2.88;;;0.93;;
61702;SDS011;47622;47.726;3.298;2022-08-02T09:21:08;1.30;;;1.00;;
61702;SDS011;47622;47.726;3.298;2022-08-02T09:23:35;2.63;;;1.20;;
61702;SDS011;47622;47.726;3.298;2022-08-02T09:26:06;2.40;;;1.00;;
61702;SDS011;47622;47.726;3.298;2022-08-02T09:28:34;2.72;;;1.20;;
61702;SDS011;47622;47.726;3.298;2022-08-02T09:31:09;2.67;;;1.08;;
61702;SDS011;47622;47.726;3.298;2022-08-02T09:33:40;2.47;;;1.00;;
61702;SDS011;47622;47.726;3.298;2022-08-02T09:36:11;2.97;;;1.13;;
61702;SDS011;47622;47.726;3.298;2022-08-02T09:38:38;5.72;;;1.10;;
61702;SDS011;47622;47.726;3.298;2022-08-02T09:41:07;1.88;;;1.05;;
61702;SDS011;47622;47.726;3.298;2022-08-02T09:43:54;1.00;;;1.00;;
61702;SDS011;47622;47.726;3.298;2022-08-02T09:46:25;1.40;;;1.20;;
61702;SDS011;47622;47.726;3.298;2022-08-02T09:48:54;1.60;;;1.17;;
61702;SDS011;47622;47.726;3.298;2022-08-02T09:51:29;2.58;;;1.20;;
61702;SDS011;47622;47.726;3.298;2022-08-02T09:53:59;1.40;;;1.15;;
61702;SDS011;47622;47.726;3.298;2022-08-02T09:59:26;3.72;;;1.60;;
61702;SDS011;47622;47.726;3.298;2022-08-02T10:01:53;3.97;;;1.40;;
61702;SDS011;47622;47.726;3.298;2022-08-02T10:04:20;1.40;;;1.20;;
61702;SDS011;47622;47.726;3.298;2022-08-02T10:06:52;1.67;;;1.23;;
61702;SDS011;47622;47.726;3.298;2022-08-02T10:09:19;1.80;;;1.33;;
61702;SDS011;47622;47.726;3.298;2022-08-02T10:11:47;2.55;;;1.20;;
61702;SDS011;47622;47.726;3.298;2022-08-02T10:14:15;1.75;;;1.20;;
61702;SDS011;47622;47.726;3.298;2022-08-02T10:16:43;4.82;;;1.48;;
61702;SDS011;47622;47.726;3.298;2022-08-02T10:19:09;1.30;;;1.20;;
61702;SDS011;47622;47.726;3.298;2022-08-02T10:24:26;2.65;;;1.20;;
61702;SDS011;47622;47.726;3.298;2022-08-02T10:26:53;2.70;;;1.23;;
61702;SDS011;47622;47.726;3.298;2022-08-02T10:29:20;1.80;;;1.00;;
61702;SDS011;47622;47.726;3.298;2022-08-02T10:32:03;2.72;;;1.02;;
61702;SDS011;47622;47.726;3.298;2022-08-02T10:34:40;1.50;;;1.13;;
61702;SDS011;47622;47.726;3.298;2022-08-02T10:37:32;1.77;;;0.90;;
61702;SDS011;47622;47.726;3.298;2022-08-02T10:40:03;1.15;;;1.05;;
61702;SDS011;47622;47.726;3.298;2022-08-02T10:47:55;2.38;;;1.13;;
61702;SDS011;47622;47.726;3.298;2022-08-02T10:53:28;4.03;;;1.10;;
61702;SDS011;47622;47.726;3.298;2022-08-02T10:55:59;2.92;;;1.25;;
61702;SDS011;47622;47.726;3.298;2022-08-02T10:58:27;2.03;;;1.10;;
61702;SDS011;47622;47.726;3.298;2022-08-02T11:00:56;2.90;;;1.10;;
61702;SDS011;47622;47.726;3.298;2022-08-02T11:06:02;1.70;;;1.10;;
61702;SDS011;47622;47.726;3.298;2022-08-02T11:08:30;0.93;;;0.80;;
61702;SDS011;47622;47.726;3.298;2022-08-02T11:10:58;1.27;;;0.82;;
61702;SDS011;47622;47.726;3.298;2022-08-02T11:13:26;4.05;;;1.15;;
61702;SDS011;47622;47.726;3.298;2022-08-02T11:16:02;0.98;;;0.82;;
61702;SDS011;47622;47.726;3.298;2022-08-02T11:21:23;2.47;;;1.08;;
61702;SDS011;47622;47.726;3.298;2022-08-02T11:24:22;1.10;;;0.90;;
61702;SDS011;47622;47.726;3.298;2022-08-02T11:26:51;1.30;;;0.70;;
61702;SDS011;47622;47.726;3.298;2022-08-02T11:29:17;0.70;;;0.70;;
61702;SDS011;47622;47.726;3.298;2022-08-02T11:31:44;1.52;;;0.90;;
61702;SDS011;47622;47.726;3.298;2022-08-02T11:34:14;0.80;;;0.80;;
61702;SDS011;47622;47.726;3.298;2022-08-02T11:36:48;0.88;;;0.80;;
61702;SDS011;47622;47.726;3.298;2022-08-02T11:39:17;1.98;;;1.13;;
61702;SDS011;47622;47.726;3.298;2022-08-02T11:41:56;1.83;;;0.80;;
61702;SDS011;47622;47.726;3.298;2022-08-02T11:44:27;0.95;;;0.90;;
61702;SDS011;47622;47.726;3.298;2022-08-02T11:47:04;2.55;;;1.00;;
61702;SDS011;47622;47.726;3.298;2022-08-02T11:49:32;1.20;;;0.80;;
61702;SDS011;47622;47.726;3.298;2022-08-02T11:52:04;1.67;;;1.10;;
61702;SDS011;47622;47.726;3.298;2022-08-02T11:54:35;2.13;;;1.02;;
61702;SDS011;47622;47.726;3.298;2022-08-02T11:57:18;3.70;;;1.20;;
61702;SDS011;47622;47.726;3.298;2022-08-02T11:59:53;1.90;;;1.00;;
61702;SDS011;47622;47.726;3.298;2022-08-02T12:02:20;1.38;;;0.80;;
61702;SDS011;47622;47.726;3.298;2022-08-02T12:04:59;1.33;;;0.85;;
61702;SDS011;47622;47.726;3.298;2022-08-02T12:07:35;1.00;;;0.80;;
61702;SDS011;47622;47.726;3.298;2022-08-02T12:10:05;1.48;;;1.02;;
61702;SDS011;47622;47.726;3.298;2022-08-02T12:12:45;1.00;;;1.00;;
61702;SDS011;47622;47.726;3.298;2022-08-02T12:15:14;2.83;;;0.90;;
61702;SDS011;47622;47.726;3.298;2022-08-02T12:17:53;1.77;;;0.95;;
61702;SDS011;47622;47.726;3.298;2022-08-02T12:20:37;1.25;;;0.80;;
61702;SDS011;47622;47.726;3.298;2022-08-02T12:23:07;3.60;;;1.08;;
61702;SDS011;47622;47.726;3.298;2022-08-02T12:25:33;1.20;;;1.05;;
61702;SDS011;47622;47.726;3.298;2022-08-02T12:28:15;3.03;;;1.00;;
61702;SDS011;47622;47.726;3.298;2022-08-02T12:30:51;3.67;;;0.90;;
61702;SDS011;47622;47.726;3.298;2022-08-02T12:33:23;1.98;;;0.85;;
61702;SDS011;47622;47.726;3.298;2022-08-02T12:35:52;1.55;;;0.80;;
61702;SDS011;47622;47.726;3.298;2022-08-02T12:38:22;1.45;;;1.00;;
61702;SDS011;47622;47.726;3.298;2022-08-02T12:40:47;1.70;;;1.00;;
61702;SDS011;47622;47.726;3.298;2022-08-02T12:43:18;3.17;;;0.80;;
61702;SDS011;47622;47.726;3.298;2022-08-02T12:45:53;2.03;;;0.93;;
61702;SDS011;47622;47.726;3.298;2022-08-02T12:48:37;2.35;;;1.17;;
61702;SDS011;47622;47.726;3.298;2022-08-02T12:54:11;1.92;;;0.93;;
61702;SDS011;47622;47.726;3.298;2022-08-02T12:56:39;1.73;;;1.10;;
61702;SDS011;47622;47.726;3.298;2022-08-02T12:59:07;2.08;;;1.00;;
61702;SDS011;47622;47.726;3.298;2022-08-02T13:01:34;2.80;;;1.00;;
61702;SDS011;47622;47.726;3.298;2022-08-02T13:04:00;1.92;;;0.90;;
61702;SDS011;47622;47.726;3.298;2022-08-02T13:06:28;1.00;;;0.90;;
61702;SDS011;47622;47.726;3.298;2022-08-02T13:08:54;2.00;;;1.00;;
61702;SDS011;47622;47.726;3.298;2022-08-02T13:11:20;1.52;;;0.88;;
61702;SDS011;47622;47.726;3.298;2022-08-02T13:13:46;2.10;;;0.90;;
61702;SDS011;47622;47.726;3.298;2022-08-02T13:16:14;1.13;;;1.02;;
61702;SDS011;47622;47.726;3.298;2022-08-02T13:18:41;1.15;;;0.80;;
61702;SDS011;47622;47.726;3.298;2022-08-02T13:21:09;2.38;;;1.00;;
61702;SDS011;47622;47.726;3.298;2022-08-02T13:23:36;1.10;;;0.93;;
61702;SDS011;47622;47.726;3.298;2022-08-02T13:26:03;1.25;;;0.90;;
61702;SDS011;47622;47.726;3.298;2022-08-02T13:28:32;1.65;;;0.95;;
61702;SDS011;47622;47.726;3.298;2022-08-02T13:30:59;3.25;;;1.05;;
61702;SDS011;47622;47.726;3.298;2022-08-02T13:33:28;0.93;;;0.90;;
61702;SDS011;47622;47.726;3.298;2022-08-02T13:35:54;1.42;;;0.90;;
61702;SDS011;47622;47.726;3.298;2022-08-02T13:38:20;1.02;;;1.00;;
61702;SDS011;47622;47.726;3.298;2022-08-02T13:40:45;0.70;;;0.70;;
61702;SDS011;47622;47.726;3.298;2022-08-02T13:43:29;0.70;;;0.70;;
61702;SDS011;47622;47.726;3.298;2022-08-02T13:45:55;1.55;;;0.90;;
61702;SDS011;47622;47.726;3.298;2022-08-02T13:48:28;3.78;;;1.35;;
61702;SDS011;47622;47.726;3.298;2022-08-02T13:50:54;3.00;;;0.85;;
61702;SDS011;47622;47.726;3.298;2022-08-02T13:53:20;0.82;;;0.80;;
61702;SDS011;47622;47.726;3.298;2022-08-02T13:55:49;1.00;;;0.90;;
61702;SDS011;47622;47.726;3.298;2022-08-02T13:58:15;2.05;;;0.93;;
61702;SDS011;47622;47.726;3.298;2022-08-02T14:00:42;2.72;;;0.80;;
61702;SDS011;47622;47.726;3.298;2022-08-02T14:03:12;1.42;;;0.93;;
61702;SDS011;47622;47.726;3.298;2022-08-02T14:05:39;2.30;;;1.00;;
61702;SDS011;47622;47.726;3.298;2022-08-02T14:08:08;1.77;;;0.77;;
61702;SDS011;47622;47.726;3.298;2022-08-02T14:10:35;2.70;;;1.10;;
61702;SDS011;47622;47.726;3.298;2022-08-02T14:13:01;2.35;;;0.95;;
61702;SDS011;47622;47.726;3.298;2022-08-02T14:15:27;1.40;;;0.90;;
61702;SDS011;47622;47.726;3.298;2022-08-02T14:17:52;1.50;;;0.98;;
61702;SDS011;47622;47.726;3.298;2022-08-02T14:20:18;1.90;;;0.98;;
61702;SDS011;47622;47.726;3.298;2022-08-02T14:22:44;0.82;;;0.65;;
61702;SDS011;47622;47.726;3.298;2022-08-02T14:25:10;1.85;;;0.77;;
61702;SDS011;47622;47.726;3.298;2022-08-02T14:27:36;0.95;;;0.80;;
61702;SDS011;47622;47.726;3.298;2022-08-02T14:30:02;1.52;;;0.98;;
61702;SDS011;47622;47.726;3.298;2022-08-02T14:32:30;1.02;;;0.90;;
61702;SDS011;47622;47.726;3.298;2022-08-02T14:34:56;1.58;;;0.88;;
61702;SDS011;47622;47.726;3.298;2022-08-02T14:37:22;1.65;;;0.90;;
61702;SDS011;47622;47.726;3.298;2022-08-02T14:39:48;1.40;;;0.98;;
61702;SDS011;47622;47.726;3.298;2022-08-02T14:42:17;0.77;;;0.77;;
61702;SDS011;47622;47.726;3.298;2022-08-02T14:44:42;0.70;;;0.60;;
61702;SDS011;47622;47.726;3.298;2022-08-02T14:47:11;1.40;;;0.85;;
61702;SDS011;47622;47.726;3.298;2022-08-02T14:49:37;0.80;;;0.80;;
61702;SDS011;47622;47.726;3.298;2022-08-02T14:52:03;1.92;;;0.88;;
61702;SDS011;47622;47.726;3.298;2022-08-02T14:54:37;5.20;;;1.00;;
61702;SDS011;47622;47.726;3.298;2022-08-02T14:57:04;1.48;;;0.90;;
61702;SDS011;47622;47.726;3.298;2022-08-02T14:59:30;2.05;;;0.80;;
61702;SDS011;47622;47.726;3.298;2022-08-02T15:01:57;1.23;;;0.82;;
61702;SDS011;47622;47.726;3.298;2022-08-02T15:04:23;2.97;;;0.80;;
61702;SDS011;47622;47.726;3.298;2022-08-02T15:06:51;0.73;;;0.60;;
61702;SDS011;47622;47.726;3.298;2022-08-02T15:09:22;0.77;;;0.77;;
61702;SDS011;47622;47.726;3.298;2022-08-02T15:11:48;0.77;;;0.70;;
61702;SDS011;47622;47.726;3.298;2022-08-02T15:14:18;0.90;;;0.73;;
61702;SDS011;47622;47.726;3.298;2022-08-02T15:16:45;1.05;;;0.90;;
61702;SDS011;47622;47.726;3.298;2022-08-02T15:19:14;0.70;;;0.70;;
61702;SDS011;47622;47.726;3.298;2022-08-02T15:21:40;1.42;;;0.90;;
61702;SDS011;47622;47.726;3.298;2022-08-02T15:24:06;1.42;;;0.90;;
61702;SDS011;47622;47.726;3.298;2022-08-02T15:26:32;2.20;;;0.80;;
61702;SDS011;47622;47.726;3.298;2022-08-02T15:28:57;1.33;;;1.10;;
61702;SDS011;47622;47.726;3.298;2022-08-02T15:31:23;2.50;;;0.90;;
61702;SDS011;47622;47.726;3.298;2022-08-02T15:33:49;2.45;;;1.00;;
61702;SDS011;47622;47.726;3.298;2022-08-02T15:36:15;1.63;;;0.93;;
61702;SDS011;47622;47.726;3.298;2022-08-02T15:38:41;2.15;;;0.80;;
61702;SDS011;47622;47.726;3.298;2022-08-02T15:41:09;2.47;;;0.95;;
61702;SDS011;47622;47.726;3.298;2022-08-02T15:43:38;2.97;;;1.17;;
61702;SDS011;47622;47.726;3.298;2022-08-02T15:46:07;1.35;;;0.80;;
61702;SDS011;47622;47.726;3.298;2022-08-02T15:48:34;0.90;;;0.90;;
61702;SDS011;47622;47.726;3.298;2022-08-02T15:51:00;0.77;;;0.73;;
61702;SDS011;47622;47.726;3.298;2022-08-02T15:53:26;1.65;;;0.98;;
61702;SDS011;47622;47.726;3.298;2022-08-02T15:55:52;1.30;;;0.90;;
61702;SDS011;47622;47.726;3.298;2022-08-02T15:58:18;1.10;;;0.90;;
61702;SDS011;47622;47.726;3.298;2022-08-02T16:00:44;1.58;;;0.70;;
61702;SDS011;47622;47.726;3.298;2022-08-02T16:03:10;1.15;;;0.85;;
61702;SDS011;47622;47.726;3.298;2022-08-02T16:05:36;0.82;;;0.70;;
61702;SDS011;47622;47.726;3.298;2022-08-02T16:08:02;1.48;;;1.08;;
61702;SDS011;47622;47.726;3.298;2022-08-02T16:10:29;1.88;;;0.80;;
61702;SDS011;47622;47.726;3.298;2022-08-02T16:12:55;1.70;;;0.70;;
61702;SDS011;47622;47.726;3.298;2022-08-02T16:15:44;1.50;;;0.80;;
61702;SDS011;47622;47.726;3.298;2022-08-02T16:18:10;2.47;;;0.90;;